Time;durP1;ratioP1;P1;durP2;ratioP2;P2;SDS_P1;SDS_P2;PMS_P1;PMS_P2;Temp;Humidity;BMP_temperature;BMP_pressure;BME280_temperature;BME280_humidity;BME280_pressure;Samples;Min_cycle;Max_cycle;Signal;HPM_P1;HPM_P2
2023/09/19 00:01:35;;;;;;;1.15;1.02;;;22.90;63.20;;;;;;5054588;28;20265;-80
2023/09/19 00:04:09;;;;;;;1.75;0.85;;;23.00;63.30;;;;;;5037860;28;20200;-79
2023/09/19 00:06:36;;;;;;;1.00;1.00;;;23.00;63.40;;;;;;5039243;28;20219;-80
2023/09/19 00:09:03;;;;;;;0.85;0.85;;;22.90;63.20;;;;;;5054386;28;20611;-80
2023/09/19 00:11:30;;;;;;;0.98;0.90;;;23.00;63.30;;;;;;5037991;28;20207;-80
2023/09/19 00:13:59;;;;;;;0.90;0.90;;;22.90;63.20;;;;;;5054145;28;20199;-80
2023/09/19 00:16:25;;;;;;;1.70;1.10;;;22.90;63.20;;;;;;5054423;28;20306;-80
2023/09/19 00:18:52;;;;;;;0.85;0.85;;;22.90;63.20;;;;;;5054347;28;20600;-80
2023/09/19 00:21:22;;;;;;;1.00;1.00;;;22.90;63.10;;;;;;5054574;28;20202;-80
2023/09/19 00:23:51;;;;;;;0.88;0.88;;;22.90;63.20;;;;;;5054141;28;20675;-80
2023/09/19 00:26:20;;;;;;;1.10;1.00;;;22.90;63.10;;;;;;5053859;28;20224;-81
2023/09/19 00:28:49;;;;;;;1.13;0.80;;;22.90;63.10;;;;;;5037679;28;20226;-81
2023/09/19 00:31:16;;;;;;;1.50;1.15;;;22.90;63.10;;;;;;5053872;28;20206;-81
2023/09/19 00:33:43;;;;;;;1.02;0.93;;;22.90;63.00;;;;;;5054705;28;20199;-81
2023/09/19 00:36:10;;;;;;;0.80;0.80;;;22.90;63.00;;;;;;5054354;28;20314;-81
2023/09/19 00:38:38;;;;;;;1.08;0.98;;;22.90;62.90;;;;;;5054872;28;20199;-81
2023/09/19 00:41:06;;;;;;;1.73;0.80;;;22.90;62.90;;;;;;5039307;28;20215;-81
2023/09/19 00:43:37;;;;;;;1.08;0.82;;;22.90;62.90;;;;;;5040398;28;20206;-81
2023/09/19 00:46:06;;;;;;;1.13;1.00;;;22.90;62.90;;;;;;5056950;28;20227;-81
2023/09/19 00:48:35;;;;;;;1.33;0.90;;;22.90;62.90;;;;;;5053803;28;20211;-81
2023/09/19 00:51:04;;;;;;;1.02;0.98;;;22.80;62.80;;;;;;5053966;28;20203;-81
2023/09/19 00:53:31;;;;;;;1.10;0.98;;;22.80;62.60;;;;;;5053910;28;20303;-81
2023/09/19 00:56:00;;;;;;;0.82;0.82;;;22.80;62.70;;;;;;5053723;28;20215;-81
2023/09/19 00:58:32;;;;;;;1.10;1.00;;;22.80;62.60;;;;;;5053593;28;20321;-81
2023/09/19 01:00:59;;;;;;;1.15;1.00;;;22.90;62.80;;;;;;5053768;28;20281;-81
2023/09/19 01:03:26;;;;;;;0.80;0.80;;;22.80;62.60;;;;;;5037216;28;20198;-81
2023/09/19 01:05:54;;;;;;;1.08;0.98;;;22.80;62.60;;;;;;5037329;28;20211;-81
2023/09/19 01:08:21;;;;;;;1.58;0.82;;;22.80;62.60;;;;;;5053401;28;20219;-80
2023/09/19 01:10:51;;;;;;;0.90;0.90;;;22.70;62.50;;;;;;5053153;28;20203;-80
2023/09/19 01:13:23;;;;;;;1.00;1.00;;;22.80;62.50;;;;;;5053436;28;20636;-80
2023/09/19 01:15:52;;;;;;;0.80;0.80;;;22.80;62.60;;;;;;5052483;28;20275;-80
2023/09/19 01:18:26;;;;;;;0.90;0.90;;;22.80;62.60;;;;;;5053383;28;20195;-80
2023/09/19 01:20:57;;;;;;;1.13;1.02;;;22.80;62.60;;;;;;5053319;28;20245;-80
2023/09/19 01:23:28;;;;;;;1.42;1.05;;;22.80;62.60;;;;;;5054175;28;20286;-80
2023/09/19 01:26:12;;;;;;;1.58;0.93;;;22.80;62.60;;;;;;5053023;28;20215;-80
2023/09/19 01:29:02;;;;;;;1.13;0.90;;;22.70;62.40;;;;;;5052739;28;20211;-80
2023/09/19 01:31:35;;;;;;;1.27;0.90;;;22.70;62.30;;;;;;5052984;28;20254;-80
2023/09/19 01:34:04;;;;;;;0.90;0.90;;;22.80;62.50;;;;;;5052948;28;20195;-80
2023/09/19 01:36:34;;;;;;;1.08;0.98;;;22.70;62.40;;;;;;5053023;28;20219;-80
2023/09/19 01:39:05;;;;;;;1.77;1.10;;;22.70;62.30;;;;;;5053579;28;20660;-80
2023/09/19 01:41:55;;;;;;;0.93;0.90;;;22.70;62.50;;;;;;5053856;28;20203;-80
2023/09/19 01:44:26;;;;;;;1.30;1.00;;;22.70;62.50;;;;;;5043306;28;20230;-80
2023/09/19 01:46:54;;;;;;;1.15;0.90;;;22.70;62.30;;;;;;5053288;28;20226;-80
2023/09/19 01:49:26;;;;;;;2.22;0.98;;;22.70;62.30;;;;;;5053375;28;20222;-80
2023/09/19 01:51:57;;;;;;;0.80;0.80;;;22.70;62.30;;;;;;5052972;28;20245;-80
2023/09/19 01:54:27;;;;;;;0.73;0.73;;;22.80;62.40;;;;;;5053185;28;20257;-80
2023/09/19 01:56:59;;;;;;;1.05;0.80;;;22.70;62.30;;;;;;5052732;28;20230;-80
2023/09/19 01:59:28;;;;;;;1.15;1.05;;;22.70;62.20;;;;;;5036575;28;20183;-80
2023/09/19 02:01:57;;;;;;;0.75;0.75;;;22.70;62.20;;;;;;5054130;28;20218;-80
2023/09/19 02:04:24;;;;;;;0.85;0.80;;;22.70;62.10;;;;;;5052785;28;20207;-80
2023/09/19 02:06:51;;;;;;;0.70;0.65;;;22.70;62.20;;;;;;5036357;28;20215;-80
2023/09/19 02:09:19;;;;;;;2.35;1.10;;;22.70;62.10;;;;;;5052493;28;20227;-80
2023/09/19 02:11:46;;;;;;;1.33;0.90;;;22.70;62.10;;;;;;5052639;28;20207;-80
2023/09/19 02:14:14;;;;;;;1.00;1.00;;;22.70;62.10;;;;;;5052716;28;20203;-80
2023/09/19 02:16:42;;;;;;;1.10;0.98;;;22.70;62.00;;;;;;5036092;28;20215;-80
2023/09/19 02:19:10;;;;;;;1.00;0.85;;;22.60;62.00;;;;;;5053214;28;20195;-80
2023/09/19 02:21:40;;;;;;;1.23;0.80;;;22.70;62.10;;;;;;5052405;28;20203;-80
2023/09/19 02:24:10;;;;;;;1.58;0.90;;;22.70;62.10;;;;;;5052370;28;20196;-80
2023/09/19 02:26:37;;;;;;;1.15;0.90;;;22.70;61.90;;;;;;5053431;28;20219;-80
2023/09/19 02:29:06;;;;;;;0.90;0.80;;;22.70;61.90;;;;;;5057045;28;20213;-80
2023/09/19 02:31:34;;;;;;;1.05;0.65;;;22.70;62.00;;;;;;5056420;28;20672;-80
2023/09/19 02:34:01;;;;;;;1.05;0.82;;;22.70;61.90;;;;;;5056600;28;20195;-80
2023/09/19 02:36:30;;;;;;;1.05;0.95;;;22.70;62.00;;;;;;5056209;28;20226;-80
2023/09/19 02:38:57;;;;;;;1.38;0.90;;;22.70;62.00;;;;;;5056788;28;20556;-80
2023/09/19 02:41:24;;;;;;;0.73;0.73;;;22.60;61.80;;;;;;5056222;28;20199;-80
2023/09/19 02:43:52;;;;;;;0.85;0.85;;;22.60;61.80;;;;;;5057254;28;20661;-80
2023/09/19 02:46:19;;;;;;;0.90;0.90;;;22.60;61.90;;;;;;5023995;28;20288;-80
2023/09/19 02:48:47;;;;;;;1.02;0.90;;;22.60;61.80;;;;;;5057380;28;20211;-80
2023/09/19 02:51:14;;;;;;;1.00;0.90;;;22.60;61.80;;;;;;5056189;28;20632;-80
2023/09/19 02:53:42;;;;;;;1.08;0.82;;;22.60;61.80;;;;;;5056098;28;20195;-80
2023/09/19 02:56:13;;;;;;;1.38;1.00;;;22.60;61.70;;;;;;5056563;28;20238;-80
2023/09/19 02:58:41;;;;;;;1.35;0.88;;;22.60;61.80;;;;;;5056774;28;20183;-80
2023/09/19 03:01:12;;;;;;;1.67;0.98;;;22.60;61.80;;;;;;5056379;28;20210;-81
2023/09/19 03:03:39;;;;;;;0.85;0.68;;;22.60;61.90;;;;;;5057063;28;20199;-81
2023/09/19 03:06:08;;;;;;;0.98;0.80;;;22.60;61.70;;;;;;5056281;28;20577;-81
2023/09/19 03:08:36;;;;;;;1.05;0.80;;;22.60;61.60;;;;;;5056629;28;20225;-81
2023/09/19 03:11:07;;;;;;;1.23;0.95;;;22.60;61.30;;;;;;5055883;28;20711;-81
2023/09/19 03:13:57;;;;;;;1.08;0.95;;;22.60;61.20;;;;;;5057039;28;20549;-81
2023/09/19 03:16:25;;;;;;;1.25;0.93;;;22.60;61.20;;;;;;5055552;28;20222;-81
2023/09/19 03:18:55;;;;;;;0.73;0.70;;;22.60;61.20;;;;;;5055759;28;20203;-81
2023/09/19 03:21:25;;;;;;;1.10;1.00;;;22.60;61.20;;;;;;5055441;28;20192;-81
2023/09/19 03:23:52;;;;;;;0.82;0.82;;;22.60;61.10;;;;;;5055323;28;20203;-81
2023/09/19 03:26:43;;;;;;;1.08;0.80;;;22.70;60.90;;;;;;5056633;28;20219;-81
2023/09/19 03:29:10;;;;;;;0.80;0.80;;;22.80;60.70;;;;;;5055173;28;20211;-81
2023/09/19 03:31:39;;;;;;;1.08;0.80;;;22.80;60.50;;;;;;5055112;28;20218;-81
2023/09/19 03:34:08;;;;;;;0.73;0.70;;;22.90;60.30;;;;;;5055221;28;20192;-81
2023/09/19 03:36:36;;;;;;;1.00;0.90;;;23.00;60.10;;;;;;5055227;28;20588;-81
2023/09/19 03:39:04;;;;;;;1.38;1.00;;;23.00;60.00;;;;;;5054275;28;20191;-81
2023/09/19 03:41:32;;;;;;;0.80;0.80;;;23.00;59.80;;;;;;5055100;28;20202;-81
2023/09/19 03:44:01;;;;;;;1.30;1.15;;;23.00;59.80;;;;;;5055067;28;20195;-81
2023/09/19 03:46:28;;;;;;;1.80;0.80;;;23.00;59.70;;;;;;5038661;28;20219;-81
2023/09/19 03:48:55;;;;;;;0.95;0.80;;;23.10;59.60;;;;;;5055956;28;20650;-81
2023/09/19 03:51:23;;;;;;;1.75;0.88;;;23.10;59.50;;;;;;5054887;28;20203;-81
2023/09/19 03:53:50;;;;;;;1.08;0.90;;;23.10;59.50;;;;;;5054779;28;20191;-81
2023/09/19 03:56:17;;;;;;;0.90;0.90;;;23.10;59.40;;;;;;5054826;28;20239;-81
2023/09/19 03:58:44;;;;;;;1.00;1.00;;;23.20;59.40;;;;;;5037943;28;20195;-81
2023/09/19 04:01:13;;;;;;;1.52;0.88;;;23.10;59.30;;;;;;5054781;28;20219;-81
2023/09/19 04:03:47;;;;;;;0.90;0.80;;;23.20;59.40;;;;;;5054884;28;20191;-81
2023/09/19 04:06:14;;;;;;;0.88;0.88;;;23.10;59.30;;;;;;5055516;28;20310;-81
2023/09/19 04:08:42;;;;;;;1.30;0.80;;;23.20;59.30;;;;;;5054901;28;20195;-81
2023/09/19 04:11:09;;;;;;;1.25;0.88;;;23.20;59.20;;;;;;5054595;28;20207;-81
2023/09/19 04:13:36;;;;;;;0.95;0.75;;;23.20;59.20;;;;;;5054280;28;20209;-81
2023/09/19 04:16:05;;;;;;;0.93;0.93;;;23.20;59.30;;;;;;5054500;28;20214;-81
2023/09/19 04:18:37;;;;;;;0.95;0.80;;;23.20;59.30;;;;;;5055421;28;20191;-81
2023/09/19 04:21:05;;;;;;;0.80;0.80;;;23.20;59.30;;;;;;5053375;28;20558;-81
2023/09/19 04:23:32;;;;;;;1.20;1.10;;;23.20;59.20;;;;;;5053777;28;20196;-81
2023/09/19 04:25:59;;;;;;;1.55;0.88;;;23.20;59.20;;;;;;5054226;28;20226;-83
2023/09/19 04:28:27;;;;;;;1.25;1.00;;;23.20;59.10;;;;;;5063205;28;20196;-83
2023/09/19 04:30:56;;;;;;;0.90;0.90;;;23.20;59.10;;;;;;5062393;28;20235;-82
2023/09/19 04:33:23;;;;;;;0.98;0.98;;;23.20;59.10;;;;;;5039252;28;20203;-84
2023/09/19 04:35:52;;;;;;;0.98;0.80;;;23.20;59.20;;;;;;5054463;28;20313;-84
2023/09/19 04:38:19;;;;;;;1.92;1.20;;;23.10;58.80;;;;;;5055140;28;20631;-84
2023/09/19 04:40:46;;;;;;;2.78;1.05;;;23.10;58.90;;;;;;5057613;28;20196;-84
2023/09/19 04:43:13;;;;;;;1.20;1.10;;;23.10;59.20;;;;;;5054604;28;20559;-84
2023/09/19 04:45:40;;;;;;;1.45;1.05;;;23.00;59.50;;;;;;5056100;28;20211;-84
2023/09/19 04:48:08;;;;;;;1.42;1.33;;;23.00;59.40;;;;;;5055273;28;20237;-84
2023/09/19 04:50:36;;;;;;;1.33;1.00;;;22.80;58.60;;;;;;5053017;28;20687;-83
2023/09/19 04:53:06;;;;;;;1.58;1.10;;;22.80;58.80;;;;;;5038095;28;20199;-83
2023/09/19 04:55:33;;;;;;;1.30;1.10;;;22.70;58.80;;;;;;5053727;28;20716;-83
2023/09/19 04:58:02;;;;;;;5.65;1.40;;;22.60;58.70;;;;;;5053835;28;20199;-83
2023/09/19 05:00:30;;;;;;;1.30;1.02;;;22.60;59.00;;;;;;5053899;28;20234;-83
2023/09/19 05:02:58;;;;;;;1.00;1.00;;;22.60;59.50;;;;;;5053741;28;20540;-83
2023/09/19 05:05:26;;;;;;;1.60;1.00;;;22.60;60.00;;;;;;5053481;28;20230;-83
2023/09/19 05:07:54;;;;;;;1.23;1.10;;;22.60;60.10;;;;;;5053345;28;20294;-84
2023/09/19 05:10:23;;;;;;;1.80;1.10;;;22.60;60.60;;;;;;5053187;28;20696;-84
2023/09/19 05:12:51;;;;;;;1.52;1.00;;;22.60;60.90;;;;;;5053157;28;20184;-84
2023/09/19 05:15:18;;;;;;;1.58;1.30;;;22.60;60.80;;;;;;5053188;28;20219;-84
2023/09/19 05:17:50;;;;;;;1.17;1.08;;;22.60;60.80;;;;;;5055874;28;20213;-85
2023/09/19 05:20:18;;;;;;;1.23;1.00;;;22.60;60.90;;;;;;5053728;28;20248;-85
2023/09/19 05:22:46;;;;;;;1.55;0.95;;;22.60;60.70;;;;;;5053705;28;20290;-85
2023/09/19 05:25:16;;;;;;;1.02;1.00;;;22.60;60.70;;;;;;5053004;28;20716;-85
2023/09/19 05:27:56;;;;;;;1.55;1.20;;;22.50;60.50;;;;;;5064955;28;20206;-85
2023/09/19 05:30:24;;;;;;;1.70;1.02;;;22.60;60.80;;;;;;5053078;28;20219;-85
2023/09/19 05:32:51;;;;;;;1.50;1.10;;;22.60;60.90;;;;;;5036366;28;20646;-84
2023/09/19 05:35:18;;;;;;;1.88;1.15;;;22.60;60.90;;;;;;5036389;28;20219;-84
2023/09/19 05:37:46;;;;;;;1.63;1.13;;;22.50;60.90;;;;;;5052750;28;20203;-84
2023/09/19 05:40:15;;;;;;;0.90;0.90;;;22.60;61.20;;;;;;5052908;28;20192;-84
2023/09/19 05:42:43;;;;;;;1.80;1.10;;;22.60;61.20;;;;;;5052854;28;20225;-80
2023/09/19 05:45:13;;;;;;;1.30;1.20;;;22.60;61.20;;;;;;5053189;28;20202;-83
2023/09/19 05:47:41;;;;;;;1.35;1.25;;;22.50;61.30;;;;;;5053352;28;20199;-83
2023/09/19 05:50:09;;;;;;;1.02;1.00;;;22.60;61.60;;;;;;5052923;28;20302;-83
2023/09/19 05:52:36;;;;;;;1.70;1.10;;;22.50;61.60;;;;;;5052943;28;20205;-83
2023/09/19 05:55:05;;;;;;;1.42;0.95;;;22.60;61.70;;;;;;5054353;28;20195;-83
2023/09/19 05:57:32;;;;;;;1.30;1.13;;;22.50;61.70;;;;;;5052965;28;20210;-83
2023/09/19 05:59:59;;;;;;;1.30;1.05;;;22.50;61.70;;;;;;5053274;28;20204;-83
2023/09/19 06:02:29;;;;;;;3.00;1.27;;;22.50;61.80;;;;;;5052859;28;20200;-83
2023/09/19 06:04:57;;;;;;;1.20;1.00;;;22.50;61.90;;;;;;5052925;28;20187;-83
2023/09/19 06:07:26;;;;;;;2.08;1.10;;;22.50;61.80;;;;;;5052590;28;20200;-83
2023/09/19 06:09:54;;;;;;;2.33;1.20;;;22.50;61.80;;;;;;5053072;28;20229;-83
2023/09/19 06:12:21;;;;;;;1.33;1.20;;;22.60;61.70;;;;;;5052775;28;20195;-83
2023/09/19 06:14:49;;;;;;;1.33;1.23;;;22.60;61.70;;;;;;5036655;28;20203;-83
2023/09/19 06:17:17;;;;;;;1.45;1.08;;;22.70;61.60;;;;;;5054106;28;20291;-83
2023/09/19 06:19:47;;;;;;;2.17;1.13;;;22.70;61.50;;;;;;5055062;28;20252;-83
2023/09/19 06:22:17;;;;;;;2.50;1.27;;;22.70;61.40;;;;;;5166462;22;20182;-81
2023/09/19 06:24:44;;;;;;;1.65;1.10;;;22.70;61.40;;;;;;5053192;28;20282;-81
2023/09/19 06:27:11;;;;;;;1.30;1.15;;;22.70;61.40;;;;;;5052478;28;20219;-81
2023/09/19 06:29:39;;;;;;;1.73;1.10;;;22.70;61.40;;;;;;5052548;28;20269;-81
2023/09/19 06:32:09;;;;;;;1.40;1.02;;;22.70;61.40;;;;;;5052426;28;20198;-81
2023/09/19 06:34:36;;;;;;;1.23;1.13;;;22.80;61.40;;;;;;5036096;28;20199;-81
2023/09/19 06:37:05;;;;;;;1.60;1.00;;;22.80;61.20;;;;;;5053915;28;20273;-80
2023/09/19 06:39:33;;;;;;;2.08;1.00;;;22.80;61.30;;;;;;5052495;28;20194;-80
2023/09/19 06:42:01;;;;;;;1.90;0.98;;;22.90;61.30;;;;;;5053701;28;20188;-80
2023/09/19 06:44:29;;;;;;;1.52;1.10;;;22.90;61.30;;;;;;5052586;28;20231;-80
2023/09/19 06:46:56;;;;;;;1.25;1.10;;;22.90;61.10;;;;;;5052178;28;20223;-80
2023/09/19 06:49:23;;;;;;;1.60;1.13;;;22.90;61.20;;;;;;5052302;28;20683;-80
2023/09/19 06:51:50;;;;;;;1.50;1.08;;;22.90;61.00;;;;;;5052289;28;20203;-80
2023/09/19 06:54:19;;;;;;;1.50;1.00;;;22.90;60.90;;;;;;5052550;28;20203;-80
2023/09/19 06:56:46;;;;;;;1.45;1.20;;;23.00;61.00;;;;;;5052630;28;20223;-80
2023/09/19 06:59:14;;;;;;;1.13;1.02;;;23.00;60.90;;;;;;5052638;28;20241;-80
2023/09/19 07:01:44;;;;;;;1.33;0.90;;;23.00;60.80;;;;;;5054024;28;20191;-80
2023/09/19 07:04:12;;;;;;;1.08;0.98;;;23.00;60.70;;;;;;5053483;28;20234;-79
2023/09/19 07:06:40;;;;;;;2.30;1.15;;;23.00;60.50;;;;;;5047393;28;20224;-79
2023/09/19 07:09:08;;;;;;;1.25;1.00;;;23.10;60.50;;;;;;5077824;28;20164;-79
2023/09/19 07:11:36;;;;;;;1.00;1.00;;;23.10;60.30;;;;;;5077832;28;20207;-79
2023/09/19 07:14:05;;;;;;;1.17;0.90;;;23.30;60.10;;;;;;5079500;28;20188;-79
2023/09/19 07:16:32;;;;;;;1.45;1.00;;;23.40;59.80;;;;;;5081377;28;20204;-79
2023/09/19 07:18:59;;;;;;;1.42;1.17;;;23.50;59.40;;;;;;5058217;28;20199;-79
2023/09/19 07:21:26;;;;;;;1.95;1.20;;;23.60;59.20;;;;;;5055994;28;20634;-79
2023/09/19 07:23:53;;;;;;;1.83;1.00;;;23.70;59.00;;;;;;5055655;28;20207;-79
2023/09/19 07:26:20;;;;;;;2.03;1.10;;;23.80;58.80;;;;;;5056731;28;20273;-81
2023/09/19 07:28:49;;;;;;;1.85;1.00;;;23.90;58.70;;;;;;5055505;28;20249;-81
2023/09/19 07:31:17;;;;;;;1.30;1.20;;;23.90;58.60;;;;;;5055576;28;20215;-80
2023/09/19 07:33:44;;;;;;;1.73;1.17;;;24.00;58.60;;;;;;5055834;28;20654;-81
2023/09/19 07:36:13;;;;;;;1.10;1.00;;;24.00;58.50;;;;;;5055665;28;20207;-81
2023/09/19 07:38:40;;;;;;;2.35;1.23;;;24.00;58.50;;;;;;5055402;28;20202;-81
2023/09/19 07:41:08;;;;;;;1.80;1.10;;;24.00;58.30;;;;;;5055530;28;20202;-81
2023/09/19 07:43:35;;;;;;;1.00;0.90;;;24.10;58.30;;;;;;5056025;28;20210;-81
2023/09/19 07:46:06;;;;;;;2.08;1.20;;;24.10;58.20;;;;;;5055026;28;20302;-81
2023/09/19 07:48:34;;;;;;;1.38;1.10;;;24.20;58.00;;;;;;5055313;28;20194;-81
2023/09/19 07:51:03;;;;;;;1.70;1.17;;;24.30;58.00;;;;;;5022216;28;20685;-80
2023/09/19 07:53:34;;;;;;;1.30;1.20;;;24.30;57.80;;;;;;5038648;28;20565;-80
2023/09/19 07:56:05;;;;;;;1.38;0.90;;;24.40;57.70;;;;;;5055193;28;20277;-80
2023/09/19 07:58:33;;;;;;;1.38;1.27;;;24.50;57.40;;;;;;5038859;28;20681;-80
2023/09/19 08:01:06;;;;;;;1.73;1.30;;;24.60;57.30;;;;;;5038636;28;20197;-80
2023/09/19 08:03:33;;;;;;;2.15;1.30;;;24.70;57.10;;;;;;5063841;28;20195;-80
2023/09/19 08:06:00;;;;;;;0.85;0.85;;;24.80;56.90;;;;;;5055011;28;20215;-80
2023/09/19 08:08:27;;;;;;;1.05;0.95;;;24.80;56.80;;;;;;5055164;28;20200;-80
2023/09/19 08:10:56;;;;;;;1.30;1.20;;;24.90;56.70;;;;;;5037863;28;20230;-80
2023/09/19 08:13:23;;;;;;;1.30;1.20;;;24.90;56.50;;;;;;5039032;28;20203;-81
2023/09/19 08:15:53;;;;;;;1.23;1.13;;;25.00;56.50;;;;;;5054407;28;20242;-81
2023/09/19 08:18:22;;;;;;;1.20;1.10;;;25.10;56.30;;;;;;5055627;28;20195;-81
2023/09/19 08:20:52;;;;;;;1.98;1.20;;;25.10;56.10;;;;;;5054500;28;20189;-80
2023/09/19 08:23:21;;;;;;;1.58;1.40;;;25.20;55.80;;;;;;5054392;28;20198;-80
2023/09/19 08:25:48;;;;;;;1.88;1.30;;;25.30;55.70;;;;;;5054581;28;20219;-80
2023/09/19 08:28:18;;;;;;;1.25;1.10;;;25.40;55.50;;;;;;5054453;28;20230;-80
2023/09/19 08:30:46;;;;;;;2.08;1.30;;;25.40;55.30;;;;;;5054172;28;20301;-80
2023/09/19 08:33:14;;;;;;;1.30;1.20;;;25.50;55.30;;;;;;5037806;28;20199;-80
2023/09/19 08:35:45;;;;;;;1.52;1.30;;;25.50;55.20;;;;;;5054347;28;20246;-80
2023/09/19 08:38:13;;;;;;;1.65;1.20;;;25.60;55.10;;;;;;5054391;28;20289;-80
2023/09/19 08:40:42;;;;;;;1.27;1.17;;;25.60;55.10;;;;;;5055336;28;20266;-80
2023/09/19 08:43:09;;;;;;;2.08;1.00;;;25.60;55.00;;;;;;5054182;28;20201;-80
2023/09/19 08:45:37;;;;;;;1.30;1.20;;;25.60;54.90;;;;;;5053872;28;20219;-80
2023/09/19 08:48:14;;;;;;;1.58;1.40;;;25.60;55.00;;;;;;5037622;28;20653;-80
2023/09/19 08:50:47;;;;;;;1.52;1.20;;;25.50;55.20;;;;;;5053962;28;20207;-80
2023/09/19 08:53:23;;;;;;;1.20;1.10;;;25.50;55.20;;;;;;5054360;28;20203;-80
2023/09/19 08:55:53;;;;;;;1.30;1.20;;;25.50;56.00;;;;;;5054406;28;20332;-80
2023/09/19 08:58:21;;;;;;;1.58;1.33;;;25.40;55.50;;;;;;5053650;28;20199;-80
2023/09/19 09:00:49;;;;;;;1.52;1.00;;;25.40;55.50;;;;;;5037397;28;20183;-80
2023/09/19 09:03:19;;;;;;;1.58;1.20;;;25.40;55.60;;;;;;5054093;28;20272;-81
2023/09/19 09:05:47;;;;;;;1.58;1.10;;;25.40;55.50;;;;;;5037474;28;20219;-81
2023/09/19 09:08:15;;;;;;;1.05;0.98;;;25.40;55.50;;;;;;5054559;28;20205;-81
2023/09/19 09:10:42;;;;;;;1.20;1.10;;;25.50;55.40;;;;;;5053626;28;20215;-81
2023/09/19 09:13:09;;;;;;;1.10;1.00;;;25.50;55.20;;;;;;5037250;28;20260;-81
2023/09/19 09:15:37;;;;;;;1.30;1.10;;;25.60;55.10;;;;;;5054764;28;20221;-81
2023/09/19 09:18:04;;;;;;;1.20;0.90;;;25.60;55.00;;;;;;5053749;28;20190;-81
2023/09/19 09:20:31;;;;;;;1.00;0.98;;;25.60;55.10;;;;;;5053261;28;20186;-81
2023/09/19 09:23:03;;;;;;;1.25;1.15;;;25.60;55.00;;;;;;5053130;28;20219;-81
2023/09/19 09:25:50;;;;;;;1.92;1.10;;;25.60;55.00;;;;;;5053766;28;20215;-81
2023/09/19 09:28:20;;;;;;;1.00;0.93;;;25.50;55.00;;;;;;5053275;28;20199;-81
2023/09/19 09:30:47;;;;;;;1.25;1.00;;;25.50;55.00;;;;;;5053076;28;20211;-81
2023/09/19 09:33:16;;;;;;;1.10;1.00;;;25.40;55.10;;;;;;5053272;28;20195;-81
2023/09/19 09:35:53;;;;;;;1.10;1.00;;;25.40;55.10;;;;;;5052650;28;20308;-81
2023/09/19 09:38:25;;;;;;;0.77;0.77;;;25.40;55.90;;;;;;5054552;28;20187;-81
2023/09/19 09:40:58;;;;;;;1.27;1.08;;;25.40;55.20;;;;;;5054817;28;20625;-81
2023/09/19 09:43:29;;;;;;;1.25;1.13;;;25.40;55.20;;;;;;5055660;28;20625;-81
2023/09/19 09:46:37;;;;;;;1.40;1.30;;;25.40;55.10;;;;;;5053975;28;20223;-81
2023/09/19 09:49:18;;;;;;;1.40;1.20;;;25.40;55.00;;;;;;5054621;28;20201;-81
2023/09/19 09:51:48;;;;;;;1.27;1.10;;;25.50;55.00;;;;;;5054469;28;20213;-81
2023/09/19 09:54:17;;;;;;;1.05;1.00;;;25.50;55.00;;;;;;5038180;28;20198;-82
2023/09/19 09:56:58;;;;;;;1.98;1.13;;;25.50;55.00;;;;;;5054681;28;20867;-81
2023/09/19 09:59:49;;;;;;;1.95;1.00;;;25.50;55.60;;;;;;5055199;28;20202;-81
2023/09/19 10:02:21;;;;;;;1.08;1.00;;;25.50;55.00;;;;;;5053691;28;20202;-81
2023/09/19 10:04:58;;;;;;;1.20;1.10;;;25.50;54.90;;;;;;5053117;28;20204;-81
2023/09/19 10:07:31;;;;;;;1.25;1.02;;;25.50;54.70;;;;;;5053265;28;20194;-81
2023/09/19 10:10:09;;;;;;;1.55;1.23;;;25.50;54.70;;;;;;5053804;28;20282;-81
2023/09/19 10:12:39;;;;;;;1.50;1.40;;;25.50;54.70;;;;;;5054406;28;20680;-81
2023/09/19 10:15:10;;;;;;;1.70;1.10;;;25.50;54.70;;;;;;5054469;28;20202;-81
2023/09/19 10:17:37;;;;;;;1.30;1.20;;;25.50;54.80;;;;;;5055132;28;20203;-81
2023/09/19 10:20:20;;;;;;;1.77;1.00;;;25.40;54.90;;;;;;5054942;28;20195;-81
2023/09/19 10:22:56;;;;;;;1.63;1.02;;;25.40;54.90;;;;;;5054843;28;20206;-81
2023/09/19 10:25:28;;;;;;;1.30;1.00;;;25.40;55.00;;;;;;5059097;28;20249;-82
2023/09/19 10:27:57;;;;;;;1.05;0.95;;;25.40;55.00;;;;;;5063235;28;20613;-82
2023/09/19 10:30:25;;;;;;;1.40;1.30;;;25.40;55.00;;;;;;5062797;28;20199;-82
2023/09/19 10:32:59;;;;;;;1.20;1.10;;;25.40;54.90;;;;;;5063564;28;20249;-82
2023/09/19 10:35:26;;;;;;;1.10;1.00;;;25.40;54.80;;;;;;5059735;28;20278;-82
2023/09/19 10:37:53;;;;;;;1.23;1.08;;;25.50;54.50;;;;;;5057991;28;20199;-82
2023/09/19 10:40:21;;;;;;;1.40;1.30;;;25.60;54.50;;;;;;5058380;28;20191;-81
2023/09/19 10:42:51;;;;;;;1.00;0.90;;;25.70;54.90;;;;;;5053051;28;20221;-81
2023/09/19 10:45:20;;;;;;;1.17;1.08;;;25.70;54.00;;;;;;5052988;28;20665;-81
2023/09/19 10:47:47;;;;;;;1.05;1.05;;;25.80;53.90;;;;;;5056350;28;20681;-81
2023/09/19 10:50:21;;;;;;;0.95;0.95;;;25.80;53.80;;;;;;5063023;28;20205;-81
2023/09/19 10:52:50;;;;;;;1.40;1.30;;;25.80;53.80;;;;;;5064248;28;20257;-81
2023/09/19 10:55:18;;;;;;;1.23;1.13;;;25.80;53.80;;;;;;5064537;28;20214;-81
2023/09/19 10:57:46;;;;;;;1.52;1.25;;;25.80;54.00;;;;;;5064111;28;20218;-81
2023/09/19 11:00:27;;;;;;;1.33;1.20;;;25.80;54.00;;;;;;5064485;28;20198;-81
2023/09/19 11:03:20;;;;;;;1.20;1.10;;;25.80;53.90;;;;;;5070412;28;20191;-81
2023/09/19 11:06:03;;;;;;;1.20;1.10;;;25.70;54.00;;;;;;5058087;28;20446;-81
2023/09/19 11:08:30;;;;;;;1.10;1.00;;;25.70;53.90;;;;;;5067280;28;20198;-81
2023/09/19 11:10:59;;;;;;;1.85;1.48;;;25.70;53.90;;;;;;5039760;28;20249;-81
2023/09/19 11:13:26;;;;;;;1.42;1.20;;;25.70;54.00;;;;;;5056748;28;20652;-81
2023/09/19 11:16:23;;;;;;;0.90;0.90;;;25.70;54.00;;;;;;5056133;28;20754;-81
2023/09/19 11:18:55;;;;;;;1.15;1.10;;;25.70;54.10;;;;;;5061006;28;20191;-81
2023/09/19 11:21:42;;;;;;;1.13;1.02;;;25.60;54.10;;;;;;5066594;28;20199;-81
2023/09/19 11:24:35;;;;;;;1.20;1.05;;;25.60;54.00;;;;;;5061427;28;20644;-81
2023/09/19 11:27:14;;;;;;;1.27;1.17;;;25.60;54.00;;;;;;5061893;28;20214;-81
2023/09/19 11:29:40;;;;;;;1.20;1.10;;;25.70;54.10;;;;;;5062250;28;20198;-81
2023/09/19 11:32:09;;;;;;;1.25;1.15;;;25.70;54.00;;;;;;5073034;28;20222;-81
2023/09/19 11:34:48;;;;;;;1.50;1.17;;;25.70;53.90;;;;;;5069331;28;20212;-81
2023/09/19 11:38:11;;;;;;;1.42;1.10;;;25.70;53.90;;;;;;5062423;28;20305;-81
2023/09/19 11:40:39;;;;;;;1.25;1.15;;;25.70;53.70;;;;;;5068056;28;20270;-81
2023/09/19 11:43:40;;;;;;;1.10;1.10;;;25.80;53.80;;;;;;5056653;28;20191;-81
2023/09/19 11:46:06;;;;;;;1.23;1.13;;;25.80;53.70;;;;;;5041491;28;20229;-81
2023/09/19 11:48:37;;;;;;;1.15;1.05;;;25.80;53.70;;;;;;5055900;28;20187;-81
2023/09/19 11:51:19;;;;;;;1.20;1.17;;;25.80;53.60;;;;;;5062378;28;20207;-81
2023/09/19 11:53:48;;;;;;;1.05;1.00;;;25.80;53.60;;;;;;5061593;28;20198;-81
2023/09/19 11:56:17;;;;;;;1.30;1.00;;;25.90;53.60;;;;;;5057871;28;20214;-81
2023/09/19 11:58:44;;;;;;;0.93;0.93;;;25.80;53.40;;;;;;5055545;28;20194;-81
2023/09/19 12:01:19;;;;;;;2.22;1.10;;;25.80;53.40;;;;;;5042661;28;20645;-82
2023/09/19 12:03:49;;;;;;;1.10;1.00;;;25.80;53.40;;;;;;5059756;28;20217;-82
2023/09/19 12:06:16;;;;;;;1.80;1.30;;;25.90;53.50;;;;;;5060231;28;20268;-82
2023/09/19 12:08:46;;;;;;;1.20;1.10;;;25.90;53.50;;;;;;5059410;28;20209;-82
2023/09/19 12:11:15;;;;;;;1.23;1.10;;;25.90;53.50;;;;;;5059741;28;20291;-82
2023/09/19 12:13:45;;;;;;;1.00;1.00;;;25.90;53.50;;;;;;5042926;28;20203;-82
2023/09/19 12:16:15;;;;;;;1.50;1.08;;;25.90;53.60;;;;;;5059240;28;20219;-82
2023/09/19 12:18:43;;;;;;;1.52;1.00;;;25.90;53.60;;;;;;5059007;28;20285;-82
2023/09/19 12:21:29;;;;;;;1.00;1.00;;;25.90;53.60;;;;;;5058608;28;20199;-82
2023/09/19 12:24:00;;;;;;;1.05;0.98;;;25.80;53.50;;;;;;5094654;22;20230;-84
2023/09/19 12:26:29;;;;;;;1.67;1.30;;;25.90;53.60;;;;;;5054874;28;20219;-84
2023/09/19 12:28:57;;;;;;;1.23;1.13;;;25.80;53.50;;;;;;5039200;28;20249;-84
2023/09/19 12:31:26;;;;;;;1.25;1.15;;;25.80;53.50;;;;;;5054255;28;20217;-84
2023/09/19 12:33:58;;;;;;;1.00;1.00;;;25.80;53.50;;;;;;5054059;28;20257;-84
2023/09/19 12:36:30;;;;;;;0.95;0.95;;;25.80;53.50;;;;;;5053823;28;20226;-84
2023/09/19 12:38:58;;;;;;;1.52;1.30;;;25.80;53.60;;;;;;5054230;28;20195;-84
2023/09/19 12:41:26;;;;;;;1.20;1.10;;;25.80;53.50;;;;;;5054091;28;20256;-84
2023/09/19 12:43:53;;;;;;;0.88;0.88;;;25.80;53.60;;;;;;5054415;28;20191;-84
2023/09/19 12:46:25;;;;;;;0.95;0.90;;;25.80;53.60;;;;;;5037660;28;20222;-83
2023/09/19 12:49:13;;;;;;;1.45;1.00;;;25.80;53.70;;;;;;5053956;28;20187;-84
2023/09/19 12:51:41;;;;;;;1.08;0.98;;;25.80;53.80;;;;;;5047664;28;20592;-84
2023/09/19 12:54:10;;;;;;;2.05;1.20;;;25.70;53.70;;;;;;5054164;28;20549;-84
2023/09/19 12:56:41;;;;;;;1.35;1.20;;;25.70;53.70;;;;;;5053752;28;20688;-84
2023/09/19 12:59:11;;;;;;;1.20;1.10;;;25.70;53.70;;;;;;5053737;28;20587;-84
2023/09/19 13:01:43;;;;;;;1.20;1.10;;;25.70;53.70;;;;;;5053615;28;20217;-84
2023/09/19 13:04:18;;;;;;;1.10;1.00;;;25.70;53.70;;;;;;5053417;28;20194;-84